createdAt,value
2018-02-11T00:02:19.026Z,84.76
2018-02-11T00:04:46.654Z,84.21
2018-02-11T00:07:14.230Z,84.54
2018-02-11T00:09:41.815Z,84.41
2018-02-11T00:12:09.398Z,83.93
2018-02-11T00:14:36.985Z,84.47
2018-02-11T00:17:04.671Z,84.64
2018-02-11T00:19:32.255Z,84.31
2018-02-11T00:21:59.847Z,84.47
2018-02-11T00:24:27.450Z,84.57
2018-02-11T00:26:55.037Z,84.06
2018-02-11T00:29:22.714Z,84.39
2018-02-11T00:31:50.310Z,84.68
2018-02-11T00:34:17.890Z,85.23
2018-02-11T00:36:51.130Z,84.88
2018-02-11T00:39:18.718Z,84.47
2018-02-11T00:41:46.300Z,84.55
2018-02-11T00:44:13.877Z,84.40
2018-02-11T00:46:41.454Z,84.96
2018-02-11T00:49:09.031Z,84.94
2018-02-11T00:51:36.614Z,85.63
2018-02-11T00:54:04.257Z,85.70
2018-02-11T00:56:31.850Z,85.00
2018-02-11T00:58:59.483Z,84.98
2018-02-11T01:01:27.063Z,85.13
2018-02-11T01:03:54.752Z,85.18
2018-02-11T01:06:22.338Z,85.44
2018-02-11T01:08:49.922Z,84.78
2018-02-11T01:11:17.541Z,84.69
2018-02-11T01:13:45.125Z,83.69
2018-02-11T01:16:12.786Z,84.30
2018-02-11T01:18:40.474Z,84.42
2018-02-11T01:21:08.050Z,84.69
2018-02-11T01:23:35.631Z,84.92
2018-02-11T01:26:03.219Z,85.38
2018-02-11T01:28:30.806Z,85.31
2018-02-11T01:30:58.378Z,85.27
2018-02-11T01:33:25.958Z,85.29
2018-02-11T01:35:53.546Z,85.70
2018-02-11T01:38:21.134Z,86.13
2018-02-11T01:40:48.714Z,85.74
2018-02-11T01:43:16.338Z,85.67
2018-02-11T01:45:43.935Z,85.66
2018-02-11T01:48:11.579Z,86.17
2018-02-11T01:50:39.167Z,85.87
2018-02-11T01:53:06.757Z,85.36
2018-02-11T01:55:34.331Z,84.97
2018-02-11T01:58:01.914Z,85.41
2018-02-11T02:00:29.509Z,85.55
2018-02-11T02:02:57.094Z,85.68
2018-02-11T02:05:24.689Z,85.95
2018-02-11T02:07:52.284Z,86.49
2018-02-11T02:10:19.967Z,87.22
2018-02-11T02:12:47.631Z,87.08
2018-02-11T02:15:15.213Z,87.42
2018-02-11T02:17:42.800Z,87.97
2018-02-11T02:20:10.442Z,87.92
2018-02-11T02:22:38.038Z,89.35
2018-02-11T02:25:05.835Z,88.43
2018-02-11T02:27:33.507Z,88.61
2018-02-11T02:30:01.100Z,89.32
2018-02-11T02:32:28.694Z,90.04
2018-02-11T02:34:56.386Z,90.03
2018-02-11T02:37:24.089Z,89.79
2018-02-11T02:39:52.073Z,90.17
2018-02-11T02:42:19.698Z,90.13
2018-02-11T02:44:47.383Z,90.45
2018-02-11T02:47:14.971Z,90.23
2018-02-11T02:49:42.559Z,90.19
2018-02-11T02:52:10.154Z,90.22
2018-02-11T02:54:37.746Z,90.90
2018-02-11T02:57:05.390Z,91.01
2018-02-11T02:59:32.979Z,91.10
2018-02-11T03:02:00.609Z,90.26
2018-02-11T03:04:28.395Z,89.68
2018-02-11T03:06:56.160Z,90.40
2018-02-11T03:09:23.741Z,89.71
2018-02-11T03:11:51.327Z,90.09
2018-02-11T03:14:18.925Z,90.08
2018-02-11T03:16:46.514Z,89.54
2018-02-11T03:19:14.156Z,89.75
2018-02-11T03:21:41.788Z,89.46
2018-02-11T03:24:09.369Z,89.47
2018-02-11T03:26:36.950Z,88.42
2018-02-11T03:29:04.574Z,89.61
2018-02-11T03:31:32.171Z,88.89
2018-02-11T03:33:59.745Z,88.63
2018-02-11T03:36:27.329Z,89.02
2018-02-11T03:38:54.910Z,89.76
2018-02-11T03:41:22.493Z,89.22
2018-02-11T03:43:50.106Z,89.62
2018-02-11T03:46:17.727Z,88.48
2018-02-11T03:48:45.311Z,88.56
2018-02-11T03:51:12.898Z,89.05
2018-02-11T03:53:40.487Z,88.91
2018-02-11T03:56:08.144Z,89.17
2018-02-11T03:58:35.735Z,89.33
2018-02-11T04:01:03.323Z,88.94
2018-02-11T04:03:30.905Z,88.38
2018-02-11T04:05:58.484Z,88.50
2018-02-11T04:08:26.078Z,88.77
2018-02-11T04:10:53.659Z,88.25
2018-02-11T04:13:21.273Z,88.47
2018-02-11T04:15:48.931Z,88.05
2018-02-11T04:18:16.528Z,87.95
2018-02-11T04:20:44.114Z,88.53
2018-02-11T04:23:11.703Z,88.74
2018-02-11T04:25:39.283Z,88.71
2018-02-11T04:28:06.866Z,88.72
2018-02-11T04:30:34.455Z,88.83
2018-02-11T04:33:02.093Z,88.64
2018-02-11T04:35:29.675Z,88.79
2018-02-11T04:37:57.275Z,88.79
2018-02-11T04:40:24.979Z,88.56
2018-02-11T04:42:52.613Z,88.53
2018-02-11T04:45:20.270Z,88.57
2018-02-11T04:47:47.971Z,87.98
2018-02-11T04:50:15.595Z,87.94
2018-02-11T04:52:43.189Z,87.87
2018-02-11T04:55:10.934Z,88.09
2018-02-11T04:57:38.548Z,88.21
2018-02-11T05:00:06.126Z,87.68
2018-02-11T05:02:33.743Z,87.94
2018-02-11T05:05:01.334Z,88.91
2018-02-11T05:07:28.919Z,89.05
2018-02-11T05:09:56.544Z,89.05
2018-02-11T05:12:24.117Z,88.63
2018-02-11T05:14:51.703Z,88.95
2018-02-11T05:17:19.275Z,89.21
2018-02-11T05:19:46.866Z,88.87
2018-02-11T05:22:14.450Z,88.36
2018-02-11T05:24:42.099Z,88.22
2018-02-11T05:27:09.682Z,88.73
2018-02-11T05:29:37.273Z,88.17
2018-02-11T05:32:04.942Z,88.21
2018-02-11T05:34:32.604Z,88.42
2018-02-11T05:37:00.192Z,88.32
2018-02-11T05:39:27.776Z,88.29
2018-02-11T05:41:55.394Z,88.42
2018-02-11T05:44:22.980Z,88.64
2018-02-11T05:46:50.554Z,88.37
2018-02-11T05:49:18.140Z,89.08
2018-02-11T05:51:45.726Z,88.47
2018-02-11T05:54:13.302Z,88.59
2018-02-11T05:56:40.877Z,88.61
2018-02-11T05:59:08.455Z,88.12
2018-02-11T06:01:36.039Z,88.17
2018-02-11T06:04:03.626Z,87.99
2018-02-11T06:06:31.222Z,88.11
2018-02-11T06:08:58.810Z,88.05
2018-02-11T06:11:26.392Z,88.06
2018-02-11T06:13:53.983Z,88.61
2018-02-11T06:16:21.569Z,88.62
2018-02-11T06:18:49.199Z,88.35
2018-02-11T06:21:16.878Z,88.18
2018-02-11T06:23:45.082Z,87.79
2018-02-11T06:26:12.670Z,88.07
2018-02-11T06:28:40.325Z,88.70
2018-02-11T06:31:07.929Z,88.20
2018-02-11T06:33:35.532Z,88.16
2018-02-11T06:36:03.123Z,88.29
2018-02-11T06:38:30.707Z,88.59
2018-02-11T06:40:58.278Z,88.30
2018-02-11T06:43:25.860Z,88.82
2018-02-11T06:45:53.441Z,88.86
2018-02-11T06:48:21.028Z,88.66
2018-02-11T06:50:48.727Z,87.72
2018-02-11T06:53:16.306Z,87.91
2018-02-11T06:55:43.883Z,87.70
2018-02-11T06:58:11.460Z,87.76
2018-02-11T07:00:39.038Z,87.91
2018-02-11T07:03:06.618Z,87.90
2018-02-11T07:05:34.195Z,87.55
2018-02-11T07:08:01.893Z,87.36
2018-02-11T07:10:29.517Z,87.39
2018-02-11T07:12:57.099Z,87.09
2018-02-11T07:15:24.680Z,86.97
2018-02-11T07:17:52.406Z,86.94
2018-02-11T07:20:19.991Z,86.33
2018-02-11T07:22:47.602Z,86.70
2018-02-11T07:25:15.242Z,86.50
2018-02-11T07:27:42.851Z,85.91
2018-02-11T07:30:10.437Z,85.86
2018-02-11T07:32:38.028Z,85.23
2018-02-11T07:35:05.698Z,84.63
2018-02-11T07:37:33.270Z,84.92
2018-02-11T07:40:00.852Z,84.80
2018-02-11T07:42:28.434Z,84.24
2018-02-11T07:44:56.015Z,83.31
2018-02-11T07:47:23.594Z,83.02
2018-02-11T07:49:51.422Z,82.99
2018-02-11T07:52:19.125Z,82.68
2018-02-11T07:54:46.705Z,82.30
2018-02-11T07:57:14.286Z,81.73
2018-02-11T07:59:41.869Z,80.79
2018-02-11T08:02:09.450Z,80.04
2018-02-11T08:04:37.044Z,78.86
2018-02-11T08:07:04.746Z,78.39
2018-02-11T08:09:32.506Z,79.23
2018-02-11T08:12:00.099Z,79.20
2018-02-11T08:14:27.718Z,79.13
2018-02-11T08:16:55.338Z,78.48
2018-02-11T08:19:22.927Z,78.75
2018-02-11T08:21:50.650Z,79.21
2018-02-11T08:24:18.291Z,79.06
2018-02-11T08:26:45.979Z,78.75
2018-02-11T08:29:13.601Z,78.53
2018-02-11T08:31:41.234Z,79.34
2018-02-11T08:34:08.865Z,78.27
2018-02-11T08:36:36.478Z,78.54
2018-02-11T08:39:04.060Z,78.03
2018-02-11T08:41:31.636Z,77.90
2018-02-11T08:43:59.214Z,76.51
2018-02-11T08:46:26.799Z,76.06
2018-02-11T08:48:54.382Z,76.25
2018-02-11T08:51:21.963Z,76.52
2018-02-11T08:53:49.629Z,76.65
2018-02-11T08:56:17.249Z,75.23
2018-02-11T08:58:44.822Z,74.65
2018-02-11T09:01:12.438Z,75.10
2018-02-11T09:03:40.024Z,74.80
2018-02-11T09:06:07.605Z,74.51
2018-02-11T09:08:35.263Z,73.18
2018-02-11T09:11:02.838Z,73.84
2018-02-11T09:13:30.448Z,73.14
2018-02-11T09:15:58.031Z,72.46
2018-02-11T09:18:25.602Z,72.80
2018-02-11T09:20:53.198Z,72.74
2018-02-11T09:23:20.782Z,72.23
2018-02-11T09:25:48.393Z,72.21
2018-02-11T09:28:16.140Z,71.85
2018-02-11T09:30:47.936Z,71.73
2018-02-11T09:33:18.255Z,70.87
2018-02-11T09:35:46.500Z,70.73
2018-02-11T09:38:14.596Z,70.20
2018-02-11T09:40:42.350Z,71.02
2018-02-11T09:43:10.655Z,69.88
2018-02-11T09:45:38.248Z,70.12
2018-02-11T09:48:06.069Z,69.58
2018-02-11T09:50:33.646Z,69.05
2018-02-11T09:53:01.242Z,69.61
2018-02-11T09:55:28.911Z,70.16
2018-02-11T09:57:56.503Z,69.65
2018-02-11T10:00:24.728Z,69.25
2018-02-11T10:02:52.485Z,70.14
2018-02-11T10:05:20.194Z,69.87
2018-02-11T10:07:47.811Z,70.07
2018-02-11T10:10:15.394Z,69.71
2018-02-11T10:12:42.963Z,69.29
2018-02-11T10:15:10.588Z,68.67
2018-02-11T10:17:39.328Z,68.73
2018-02-11T10:20:06.903Z,68.43
2018-02-11T10:22:34.552Z,68.39
2018-02-11T10:25:02.127Z,68.25
2018-02-11T10:27:29.720Z,68.89
2018-02-11T10:29:57.298Z,68.08
2018-02-11T10:32:24.906Z,67.17
2018-02-11T10:34:52.475Z,67.89
2018-02-11T10:37:20.166Z,67.30
2018-02-11T10:39:47.882Z,68.05
2018-02-11T10:42:15.495Z,67.50
2018-02-11T10:44:43.058Z,67.83
2018-02-11T10:47:10.635Z,66.35
2018-02-11T10:49:38.774Z,66.61
2018-02-11T10:52:07.019Z,65.62
2018-02-11T10:54:34.655Z,66.78
2018-02-11T10:57:02.293Z,65.60
2018-02-11T10:59:30.805Z,65.48
2018-02-11T11:01:58.383Z,65.20
2018-02-11T11:04:25.978Z,64.93
2018-02-11T11:06:55.365Z,64.46
2018-02-11T11:09:23.067Z,64.87
2018-02-11T11:11:50.691Z,64.40
2018-02-11T11:14:18.311Z,64.75
2018-02-11T11:16:45.959Z,64.47
2018-02-11T11:19:13.530Z,64.05
2018-02-11T11:21:41.106Z,64.19
2018-02-11T11:24:08.678Z,63.87
2018-02-11T11:26:36.291Z,63.93
2018-02-11T11:29:03.867Z,64.62
2018-02-11T11:31:31.496Z,63.71
2018-02-11T11:33:59.103Z,63.74
2018-02-11T11:36:26.719Z,64.39
2018-02-11T11:38:54.287Z,63.97
2018-02-11T11:41:21.890Z,62.13
2018-02-11T11:43:49.474Z,62.57
2018-02-11T11:46:17.091Z,62.60
2018-02-11T11:48:44.702Z,63.06
2018-02-11T11:51:12.275Z,63.01
2018-02-11T11:53:39.886Z,64.01
2018-02-11T11:56:07.467Z,66.99
2018-02-11T11:58:35.054Z,67.51
2018-02-11T12:01:02.686Z,68.08
2018-02-11T12:03:30.337Z,68.15
2018-02-11T12:05:57.980Z,68.07
2018-02-11T12:08:25.674Z,69.28
2018-02-11T12:10:53.248Z,67.87
2018-02-11T12:13:20.822Z,67.49
2018-02-11T12:15:48.431Z,68.21
2018-02-11T12:18:16.047Z,67.37
2018-02-11T12:20:43.655Z,67.87
2018-02-11T12:23:11.261Z,67.68
2018-02-11T12:25:38.827Z,66.68
2018-02-11T12:28:06.395Z,67.43
2018-02-11T12:30:34.062Z,67.17
2018-02-11T12:33:01.642Z,68.20
2018-02-11T12:35:29.227Z,67.97
2018-02-11T12:37:56.870Z,68.51
2018-02-11T12:40:24.438Z,69.31
2018-02-11T12:42:52.011Z,69.38
2018-02-11T12:45:19.587Z,69.56
2018-02-11T12:47:47.222Z,69.82
2018-02-11T12:50:15.118Z,70.81
2018-02-11T12:52:42.755Z,71.57
2018-02-11T12:55:10.330Z,71.83
2018-02-11T12:57:37.974Z,71.49
2018-02-11T13:00:05.588Z,73.97
2018-02-11T13:02:33.157Z,75.94
2018-02-11T13:05:01.290Z,76.72
2018-02-11T13:07:28.863Z,77.94
2018-02-11T13:09:56.494Z,78.64
2018-02-11T13:12:24.112Z,80.25
2018-02-11T13:14:51.682Z,81.25
2018-02-11T13:17:19.255Z,81.45
2018-02-11T13:19:46.831Z,82.16
2018-02-11T13:22:15.289Z,84.85
2018-02-11T13:24:44.957Z,84.80
2018-02-11T13:27:13.258Z,85.59
2018-02-11T13:29:40.838Z,85.68
2018-02-11T13:32:08.452Z,87.07
2018-02-11T13:34:36.103Z,87.94
2018-02-11T13:37:03.759Z,88.39
2018-02-11T13:39:32.109Z,88.69
2018-02-11T13:41:59.744Z,90.12
2018-02-11T13:44:27.319Z,89.34
2018-02-11T13:46:54.936Z,90.42
2018-02-11T13:49:22.639Z,90.39
2018-02-11T13:51:50.259Z,90.42
2018-02-11T13:54:17.859Z,90.61
2018-02-11T13:56:45.437Z,90.73
2018-02-11T13:59:13.098Z,91.05
2018-02-11T14:01:40.799Z,90.36
2018-02-11T14:04:08.490Z,90.64
2018-02-11T14:06:36.126Z,91.18
2018-02-11T14:09:03.740Z,91.08
2018-02-11T14:11:31.314Z,90.91
2018-02-11T14:13:58.928Z,91.38
2018-02-11T14:16:26.504Z,91.47
2018-02-11T14:18:54.087Z,91.34
2018-02-11T14:21:21.691Z,91.62
2018-02-11T14:23:49.306Z,92.07
2018-02-11T14:26:16.914Z,91.53
2018-02-11T14:28:44.575Z,91.83
2018-02-11T14:31:12.146Z,92.36
2018-02-11T14:33:39.770Z,92.26
2018-02-11T14:36:07.383Z,92.41
2018-02-11T14:38:34.992Z,92.01
2018-02-11T14:41:02.566Z,91.97
2018-02-11T14:43:30.246Z,92.29
2018-02-11T14:45:57.835Z,92.57
2018-02-11T14:48:25.410Z,92.59
2018-02-11T14:50:53.000Z,93.46
2018-02-11T14:53:20.611Z,93.60
2018-02-11T14:55:48.193Z,93.50
2018-02-11T14:58:16.948Z,93.23
2018-02-11T15:00:44.571Z,93.58
2018-02-11T15:03:12.687Z,94.15
2018-02-11T15:05:40.344Z,94.35
2018-02-11T15:08:08.007Z,94.66
2018-02-11T15:10:35.623Z,94.87
2018-02-11T15:13:03.194Z,95.20
2018-02-11T15:15:30.813Z,94.91
2018-02-11T15:17:58.552Z,95.18
2018-02-11T15:20:26.183Z,95.10
2018-02-11T15:22:54.146Z,95.34
2018-02-11T15:25:21.822Z,95.75
2018-02-11T15:27:49.683Z,95.04
2018-02-11T15:30:17.384Z,95.07
2018-02-11T15:32:45.000Z,95.32
2018-02-11T15:35:12.584Z,95.43
2018-02-11T15:37:40.195Z,95.80
2018-02-11T15:40:07.779Z,95.89
2018-02-11T15:42:35.394Z,95.50
2018-02-11T15:45:02.975Z,95.48
2018-02-11T15:47:30.591Z,95.49
2018-02-11T15:49:58.894Z,95.09
2018-02-11T15:52:26.589Z,95.76
2018-02-11T15:54:54.171Z,95.37
2018-02-11T15:57:21.779Z,95.21
2018-02-11T15:59:49.354Z,95.50
2018-02-11T16:02:17.001Z,95.35
2018-02-11T16:04:44.583Z,94.89
2018-02-11T16:07:12.169Z,95.40
2018-02-11T16:09:39.750Z,95.78
2018-02-11T16:12:07.466Z,95.67
2018-02-11T16:14:37.129Z,96.04
2018-02-11T16:17:05.685Z,95.91
2018-02-11T16:19:34.214Z,95.72
2018-02-11T16:22:01.837Z,96.17
2018-02-11T16:24:30.163Z,96.00
2018-02-11T16:27:00.761Z,96.29
2018-02-11T16:29:33.491Z,96.10
2018-02-11T16:32:01.216Z,96.31
2018-02-11T16:34:28.831Z,95.14
2018-02-11T16:36:56.408Z,95.65
2018-02-11T16:39:24.055Z,95.54
2018-02-11T16:41:51.719Z,95.73
2018-02-11T16:44:19.359Z,95.68
2018-02-11T16:46:46.997Z,95.71
2018-02-11T16:49:14.594Z,95.67
2018-02-11T16:51:42.171Z,95.60
2018-02-11T16:54:09.984Z,95.50
2018-02-11T16:56:37.566Z,95.47
2018-02-11T16:59:05.146Z,95.06
2018-02-11T17:01:32.746Z,94.88
2018-02-11T17:04:00.344Z,95.24
2018-02-11T17:06:28.158Z,95.19
2018-02-11T17:08:55.747Z,94.97
2018-02-11T17:11:23.324Z,95.09
2018-02-11T17:13:50.935Z,94.82
2018-02-11T17:16:18.520Z,94.37
2018-02-11T17:18:46.291Z,94.90
2018-02-11T17:21:13.866Z,95.36
2018-02-11T17:23:41.482Z,95.17
2018-02-11T17:26:09.277Z,95.35
2018-02-11T17:28:36.962Z,95.40
2018-02-11T17:31:04.570Z,95.43
2018-02-11T17:33:32.227Z,95.46
2018-02-11T17:36:00.227Z,95.52
2018-02-11T17:38:27.816Z,95.01
2018-02-11T17:40:55.399Z,94.94
2018-02-11T17:43:23.118Z,95.24
2018-02-11T17:45:50.698Z,94.93
2018-02-11T17:48:18.479Z,95.00
2018-02-11T17:50:46.103Z,94.95
2018-02-11T17:53:13.679Z,95.01
2018-02-11T17:55:41.255Z,94.99
2018-02-11T17:58:08.832Z,95.05
2018-02-11T18:00:36.671Z,95.35
2018-02-11T18:03:04.727Z,95.33
2018-02-11T18:05:32.622Z,95.28
2018-02-11T18:08:02.551Z,94.70
2018-02-11T18:10:30.378Z,94.42
2018-02-11T18:12:58.126Z,95.01
2018-02-11T18:15:25.915Z,94.78
2018-02-11T18:17:53.573Z,94.33
2018-02-11T18:20:21.163Z,94.28
2018-02-11T18:22:48.788Z,93.52
2018-02-11T18:25:16.640Z,93.70
2018-02-11T18:27:44.398Z,93.52
2018-02-11T18:30:11.982Z,93.41
2018-02-11T18:32:39.698Z,93.21
2018-02-11T18:35:07.292Z,93.30
2018-02-11T18:37:35.044Z,93.78
2018-02-11T18:40:02.750Z,93.17
2018-02-11T18:42:30.339Z,93.10
2018-02-11T18:44:58.047Z,93.15
2018-02-11T18:47:25.860Z,92.59
2018-02-11T18:49:54.733Z,93.45
2018-02-11T18:52:22.435Z,93.53
2018-02-11T18:54:50.007Z,92.98
2018-02-11T18:57:17.620Z,93.33
2018-02-11T18:59:45.483Z,92.71
2018-02-11T19:02:13.396Z,93.69
2018-02-11T19:04:41.028Z,93.85
2018-02-11T19:07:08.719Z,93.62
2018-02-11T19:09:36.467Z,93.22
2018-02-11T19:12:04.312Z,93.17
2018-02-11T19:14:31.964Z,92.47
2018-02-11T19:16:59.575Z,93.44
2018-02-11T19:19:27.401Z,92.72
2018-02-11T19:21:55.019Z,92.38
2018-02-11T19:24:22.665Z,92.76
2018-02-11T19:26:50.286Z,91.82
2018-02-11T19:29:18.134Z,92.63
2018-02-11T19:31:45.719Z,92.98
2018-02-11T19:34:13.424Z,93.39
2018-02-11T19:36:41.135Z,93.04
2018-02-11T19:39:08.901Z,92.56
2018-02-11T19:41:36.471Z,91.92
2018-02-11T19:44:04.044Z,92.58
2018-02-11T19:46:31.631Z,92.23
2018-02-11T19:48:59.471Z,92.16
2018-02-11T19:51:27.124Z,91.95
2018-02-11T19:53:54.706Z,91.62
2018-02-11T19:56:22.278Z,91.92
2018-02-11T19:58:50.008Z,92.46
2018-02-11T20:01:17.660Z,92.62
2018-02-11T20:03:45.242Z,91.55
2018-02-11T20:06:12.820Z,91.91
2018-02-11T20:08:40.548Z,91.96
2018-02-11T20:11:08.321Z,92.41
2018-02-11T20:13:35.919Z,92.31
2018-02-11T20:16:03.487Z,91.97
2018-02-11T20:18:31.071Z,92.19
2018-02-11T20:20:58.841Z,92.27
2018-02-11T20:23:26.473Z,92.46
2018-02-11T20:25:54.041Z,92.48
2018-02-11T20:28:21.625Z,92.08
2018-02-11T20:30:49.337Z,92.29
2018-02-11T20:33:17.844Z,92.35
2018-02-11T20:35:46.062Z,92.26
2018-02-11T20:38:13.636Z,92.10
2018-02-11T20:40:41.271Z,92.03
2018-02-11T20:43:09.050Z,91.64
2018-02-11T20:45:36.674Z,92.09
2018-02-11T20:48:04.245Z,91.32
2018-02-11T20:50:31.888Z,91.25
2018-02-11T20:52:59.557Z,91.00
2018-02-11T20:55:27.161Z,91.12
2018-02-11T20:57:55.144Z,90.66
2018-02-11T21:00:22.724Z,89.91
2018-02-11T21:02:50.299Z,90.54
2018-02-11T21:05:17.900Z,90.46
2018-02-11T21:07:45.563Z,90.76
2018-02-11T21:10:13.367Z,90.66
2018-02-11T21:12:41.059Z,91.02
2018-02-11T21:15:08.773Z,91.30
2018-02-11T21:17:36.342Z,91.03
2018-02-11T21:20:04.072Z,91.09
2018-02-11T21:22:31.655Z,91.61
2018-02-11T21:24:59.434Z,91.15
2018-02-11T21:27:27.137Z,90.16
2018-02-11T21:29:54.863Z,90.03
2018-02-11T21:32:22.483Z,89.55
2018-02-11T21:34:50.127Z,89.31
2018-02-11T21:37:18.071Z,87.90
2018-02-11T21:39:45.655Z,88.84
2018-02-11T21:42:13.474Z,89.68
2018-02-11T21:44:41.045Z,90.05
2018-02-11T21:47:08.654Z,89.62
2018-02-11T21:49:36.275Z,89.83
2018-02-11T21:52:03.848Z,89.80
2018-02-11T21:54:31.427Z,89.99
2018-02-11T21:56:59.041Z,89.87
2018-02-11T21:59:26.659Z,89.75
2018-02-11T22:01:54.482Z,89.82
2018-02-11T22:04:22.054Z,89.05
2018-02-11T22:06:49.626Z,89.37
2018-02-11T22:09:17.358Z,89.16
2018-02-11T22:11:44.966Z,89.61
2018-02-11T22:14:12.627Z,89.13
2018-02-11T22:16:40.202Z,88.90
2018-02-11T22:19:07.883Z,89.24
2018-02-11T22:21:35.446Z,89.21
2018-02-11T22:24:03.058Z,88.42
2018-02-11T22:26:30.734Z,87.40
2018-02-11T22:28:58.335Z,87.83
2018-02-11T22:31:25.907Z,88.24
2018-02-11T22:33:53.511Z,86.82
2018-02-11T22:36:21.076Z,87.16
2018-02-11T22:38:48.692Z,87.78
2018-02-11T22:41:16.406Z,87.86
2018-02-11T22:43:44.590Z,86.84
2018-02-11T22:46:12.168Z,87.42
2018-02-11T22:48:39.849Z,86.87
2018-02-11T22:51:07.415Z,86.46
2018-02-11T22:53:35.048Z,86.26
2018-02-11T22:56:02.694Z,86.55
2018-02-11T22:58:30.264Z,86.24
2018-02-11T23:00:57.913Z,86.78
2018-02-11T23:05:53.203Z,86.57
2018-02-11T23:08:20.776Z,86.02
2018-02-11T23:10:48.338Z,86.53
2018-02-11T23:13:15.910Z,86.73
2018-02-11T23:15:43.474Z,87.52
2018-02-11T23:18:11.048Z,87.02
2018-02-11T23:20:38.616Z,87.80
2018-02-11T23:23:06.183Z,88.26
2018-02-11T23:25:33.756Z,88.42
2018-02-11T23:28:01.385Z,88.04
2018-02-11T23:30:29.050Z,88.19
2018-02-11T23:32:56.719Z,89.24
2018-02-11T23:35:24.302Z,89.03
2018-02-11T23:37:51.970Z,89.49
2018-02-11T23:40:19.544Z,89.15
2018-02-11T23:42:47.226Z,89.50
2018-02-11T23:45:14.793Z,89.72
2018-02-11T23:47:42.489Z,89.66
2018-02-11T23:50:10.087Z,89.68
2018-02-11T23:52:37.664Z,90.27
2018-02-11T23:55:05.233Z,90.87
2018-02-11T23:57:32.806Z,90.04
